地図

経路データ

SID SEASON NUMBER BASIN SUBBASIN NAME ISO_TIME NATURE LAT LON WMO_WIND WMO_PRES WMO_AGENCY TRACK_TYPE DIST2LAND LANDFALL IFLAG USA_AGENCY USA_ATCF_ID USA_LAT USA_LON USA_RECORD USA_STATUS USA_WIND USA_PRES USA_SSHS USA_R34_NE USA_R34_SE USA_R34_SW USA_R34_NW USA_R50_NE USA_R50_SE USA_R50_SW USA_R50_NW USA_R64_NE USA_R64_SE USA_R64_SW USA_R64_NW USA_POCI USA_ROCI USA_RMW USA_EYE TOKYO_LAT TOKYO_LON TOKYO_GRADE TOKYO_WIND TOKYO_PRES TOKYO_R50_DIR TOKYO_R50_LONG TOKYO_R50_SHORT TOKYO_R30_DIR TOKYO_R30_LONG TOKYO_R30_SHORT TOKYO_LAND CMA_LAT CMA_LON CMA_CAT CMA_WIND CMA_PRES HKO_LAT HKO_LON HKO_CAT HKO_WIND HKO_PRES NEWDELHI_LAT NEWDELHI_LON NEWDELHI_GRADE NEWDELHI_WIND NEWDELHI_PRES NEWDELHI_CI NEWDELHI_DP NEWDELHI_POCI REUNION_LAT REUNION_LON REUNION_TYPE REUNION_WIND REUNION_PRES REUNION_TNUM REUNION_CI REUNION_RMW REUNION_R34_NE REUNION_R34_SE REUNION_R34_SW REUNION_R34_NW REUNION_R50_NE REUNION_R50_SE REUNION_R50_SW REUNION_R50_NW REUNION_R64_NE REUNION_R64_SE REUNION_R64_SW REUNION_R64_NW BOM_LAT BOM_LON BOM_TYPE BOM_WIND BOM_PRES BOM_TNUM BOM_CI BOM_RMW BOM_R34_NE BOM_R34_SE BOM_R34_SW BOM_R34_NW BOM_R50_NE BOM_R50_SE BOM_R50_SW BOM_R50_NW BOM_R64_NE BOM_R64_SE BOM_R64_SW BOM_R64_NW BOM_ROCI BOM_POCI BOM_EYE BOM_POS_METHOD BOM_PRES_METHOD NADI_LAT NADI_LON NADI_CAT NADI_WIND NADI_PRES WELLINGTON_LAT WELLINGTON_LON WELLINGTON_WIND WELLINGTON_PRES DS824_LAT DS824_LON DS824_STAGE DS824_WIND DS824_PRES TD9636_LAT TD9636_LON TD9636_STAGE TD9636_WIND TD9636_PRES TD9635_LAT TD9635_LON TD9635_WIND TD9635_PRES TD9635_ROCI NEUMANN_LAT NEUMANN_LON NEUMANN_CLASS NEUMANN_WIND NEUMANN_PRES MLC_LAT MLC_LON MLC_CLASS MLC_WIND MLC_PRES USA_GUST BOM_GUST BOM_GUST_PER REUNION_GUST REUNION_GUST_PER USA_SEAHGT USA_SEARAD_NE USA_SEARAD_SE USA_SEARAD_SW USA_SEARAD_NW STORM_SPEED STORM_DIR
1897355S18115 1898 53 SI WA NOT_NAMED 1897-12-21 06:00:00 NR -18.1000 115.100 main 326 316 _____O________ -1 -18.1000 115.100 99 9.90000 2 199
1897355S18115 1898 53 SI WA NOT_NAMED 1897-12-21 09:00:00 NR -18.1918 115.057 main 316 312 _____P________ -1 -18.1918 115.057 99 2 204
1897355S18115 1898 53 SI WA NOT_NAMED 1897-12-21 12:00:00 NR -18.2844 115.014 main 312 303 _____P________ -1 -18.2844 115.014 99 2 202
1897355S18115 1898 53 SI WA NOT_NAMED 1897-12-21 15:00:00 NR -18.3785 114.969 main 303 300 _____P________ -1 -18.3785 114.969 99 2 204
1897355S18115 1898 53 SI WA NOT_NAMED 1897-12-21 18:00:00 NR -18.4750 114.922 main 300 291 _____P________ -1 -18.4750 114.922 99 2 205
1897355S18115 1898 53 SI WA NOT_NAMED 1897-12-21 21:00:00 NR -18.5746 114.873 main 291 286 _____P________ -1 -18.5746 114.873 99 2 205
1897355S18115 1898 53 SI WA NOT_NAMED 1897-12-22 00:00:00 NR -18.6781 114.820 main 286 276 _____P________ -1 -18.6781 114.820 99 2 207
1897355S18115 1898 53 SI WA NOT_NAMED 1897-12-22 03:00:00 NR -18.7863 114.762 main 276 273 _____P________ -1 -18.7863 114.762 99 3 206
1897355S18115 1898 53 SI WA NOT_NAMED 1897-12-22 06:00:00 NR -18.9000 114.700 main 273 264 _____O________ -1 -18.9000 114.700 99 9.90000 3 208
1897355S18115 1898 53 SI WA NOT_NAMED 1897-12-22 09:00:00 NR -19.0198 114.633 main 270 261 _____P________ -1 -19.0198 114.633 99 3 208
1897355S18115 1898 53 SI WA NOT_NAMED 1897-12-22 12:00:00 NR -19.1454 114.562 main 261 248 _____P________ -1 -19.1454 114.562 99 3 208
1897355S18115 1898 53 SI WA NOT_NAMED 1897-12-22 15:00:00 NR -19.2765 114.491 main 248 239 _____P________ -1 -19.2765 114.491 99 3 207
1897355S18115 1898 53 SI WA NOT_NAMED 1897-12-22 18:00:00 NR -19.4126 114.420 main 246 237 _____P________ -1 -19.4126 114.420 99 3 205
1897355S18115 1898 53 SI WA NOT_NAMED 1897-12-22 21:00:00 NR -19.5534 114.354 main 229 228 _____P________ -1 -19.5534 114.354 99 3 202
1897355S18115 1898 53 SI WA NOT_NAMED 1897-12-23 00:00:00 NR -19.6985 114.293 main 228 221 _____P________ -1 -19.6985 114.293 99 3 199
1897355S18115 1898 53 SI WA NOT_NAMED 1897-12-23 03:00:00 NR -19.8475 114.241 main 224 203 _____P________ -1 -19.8475 114.241 99 3 196
1897355S18115 1898 53 SI WA NOT_NAMED 1897-12-23 06:00:00 NR -20.0000 114.200 main 203 193 _____O________ -1 -20.0000 114.200 99 9.90000 3 194
1897355S18115 1898 53 SI WA NOT_NAMED 1897-12-23 09:00:00 NR -20.1550 114.160 main 182 175 _____P________ -1 -20.1550 114.160 99 3 192
1897355S18115 1898 53 SI WA NOT_NAMED 1897-12-23 12:00:00 NR -20.3145 114.128 main 175 154 _____P________ -1 -20.3145 114.128 99 3 189
1897355S18115 1898 53 SI WA NOT_NAMED 1897-12-23 15:00:00 NR -20.4773 114.106 main 154 143 _____P________ -1 -20.4773 114.106 99 3 188
1897355S18115 1898 53 SI WA NOT_NAMED 1897-12-23 18:00:00 NR -20.6422 114.095 main 143 123 _____P________ -1 -20.6422 114.095 99 3 182
1897355S18115 1898 53 SI WA NOT_NAMED 1897-12-23 21:00:00 NR -20.8081 114.098 main 123 100 _____P________ -1 -20.8081 114.098 99 3 0
1897355S18115 1898 53 SI WA NOT_NAMED 1897-12-24 00:00:00 NR -20.9738 114.115 main 100 89 _____P________ -1 -20.9738 114.115 99 3 172
1897355S18115 1898 53 SI WA NOT_NAMED 1897-12-24 03:00:00 NR -21.1382 114.149 main 89 67 _____P________ -1 -21.1382 114.149 99 3 166
1897355S18115 1898 53 SI WA NOT_NAMED 1897-12-24 06:00:00 NR -21.3000 114.200 main 67 54 _____O________ -1 -21.3000 114.200 99 9.90000 3 161
1897355S18115 1898 53 SI WA NOT_NAMED 1897-12-24 09:00:00 NR -21.4584 114.270 main 45 30 _____P________ -1 -21.4584 114.270 99 3 155
1897355S18115 1898 53 SI WA NOT_NAMED 1897-12-24 12:00:00 NR -21.6134 114.356 main 30 10 _____P________ -1 -21.6134 114.356 99 4 150
1897355S18115 1898 53 SI WA NOT_NAMED 1897-12-24 15:00:00 NR -21.7657 114.458 main 10 0 _____P________ -1 -21.7657 114.458 99 4 147
1897355S18115 1898 53 SI WA NOT_NAMED 1897-12-24 18:00:00 NR -21.9156 114.571 main 0 0 _____P________ -1 -21.9156 114.571 99 4 143
1897355S18115 1898 53 SI WA NOT_NAMED 1897-12-24 21:00:00 NR -22.0635 114.695 main 0 0 _____P________ -1 -22.0635 114.695 99 4 142
1897355S18115 1898 53 SI WA NOT_NAMED 1897-12-25 00:00:00 NR -22.2099 114.825 main 0 0 _____P________ -1 -22.2099 114.825 99 4 140
1897355S18115 1898 53 SI WA NOT_NAMED 1897-12-25 03:00:00 NR -22.3552 114.961 main 0 0 _____P________ -1 -22.3552 114.961 99 4 139
1897355S18115 1898 53 SI WA NOT_NAMED 1897-12-25 06:00:00 NR -22.5000 115.100 main 0 _____O________ -1 -22.5000 115.100 99 9.90000 4 140

IBTrACS Databaseについて

本データベースは、米国NOAAが公開する1842年以降の世界の熱帯低気圧のベストトラックデータアーカイブInternational Best Track Archive for Climate Stewardship (IBTrACS)を、ウェブで閲覧しやすい形式に変換したものです。

最終更新日:2021-12-06